Time;durP1;ratioP1;P1;durP2;ratioP2;P2;SDS_P1;SDS_P2;PMS_P1;PMS_P2;Temp;Humidity;BMP_temperature;BMP_pressure;BME280_temperature;BME280_humidity;BME280_pressure;Samples;Min_cycle;Max_cycle;Signal;HPM_P1;HPM_P2
2021/06/01 00:01:18;;;;;;;8.70;7.50;;;14.80;66.30;;;;;;4995585;28;20468;-89
2021/06/01 00:03:45;;;;;;;8.07;7.27;;;14.70;66.40;;;;;;4994317;28;20446;-90
2021/06/01 00:06:12;;;;;;;8.63;7.20;;;14.50;66.80;;;;;;5010386;28;20478;-90
2021/06/01 00:08:38;;;;;;;8.53;7.73;;;14.50;67.40;;;;;;5015917;28;20459;-90
2021/06/01 00:11:05;;;;;;;7.40;6.70;;;14.40;67.60;;;;;;5011643;28;20449;-90
2021/06/01 00:13:33;;;;;;;10.13;7.93;;;14.50;68.10;;;;;;4996797;28;20480;-90
2021/06/01 00:16:00;;;;;;;8.00;7.23;;;14.40;67.90;;;;;;4997806;28;20471;-90
2021/06/01 00:18:26;;;;;;;10.30;7.93;;;14.30;68.40;;;;;;5017423;28;20471;-89
2021/06/01 00:20:52;;;;;;;8.13;6.80;;;14.30;68.40;;;;;;5010418;28;20462;-90
2021/06/01 00:23:18;;;;;;;7.83;7.13;;;14.30;68.20;;;;;;5006132;28;20987;-89
2021/06/01 00:25:45;;;;;;;8.30;7.13;;;14.30;68.70;;;;;;5003720;28;20447;-89
2021/06/01 00:28:11;;;;;;;10.97;8.40;;;14.30;69.10;;;;;;4997110;28;20472;-89
2021/06/01 00:30:40;;;;;;;9.30;7.53;;;14.20;69.40;;;;;;4997748;28;20452;-90
2021/06/01 00:33:06;;;;;;;8.70;7.87;;;14.20;69.70;;;;;;4996804;28;20466;-89
2021/06/01 00:35:34;;;;;;;7.90;7.07;;;14.00;70.40;;;;;;5003888;28;20505;-90
2021/06/01 00:38:00;;;;;;;8.97;7.00;;;13.90;70.90;;;;;;5017859;28;20466;-90
2021/06/01 00:40:26;;;;;;;10.70;8.67;;;13.90;71.50;;;;;;5010769;28;20834;-90
2021/06/01 00:42:53;;;;;;;8.70;7.80;;;13.80;71.50;;;;;;4996770;28;20940;-90
2021/06/01 00:45:21;;;;;;;11.50;9.17;;;13.70;72.20;;;;;;4994619;28;20820;-90
2021/06/01 00:47:49;;;;;;;9.70;8.47;;;13.80;72.10;;;;;;4991330;28;20558;-87
2021/06/01 00:50:15;;;;;;;9.60;8.57;;;13.80;72.30;;;;;;4992888;28;20459;-88
2021/06/01 00:52:42;;;;;;;11.87;8.40;;;13.80;72.40;;;;;;4996036;28;20944;-87
2021/06/01 00:55:09;;;;;;;12.50;7.90;;;13.80;72.10;;;;;;5000659;28;20904;-87
2021/06/01 00:57:36;;;;;;;12.40;9.13;;;13.80;72.30;;;;;;4994903;28;20827;-87
2021/06/01 01:00:05;;;;;;;9.63;8.47;;;13.80;72.70;;;;;;4993760;28;20447;-88
2021/06/01 01:02:31;;;;;;;9.97;9.10;;;13.70;72.60;;;;;;4996034;28;20448;-87
2021/06/01 01:05:00;;;;;;;12.17;9.10;;;13.70;72.80;;;;;;5004260;28;20437;-87
2021/06/01 01:07:43;;;;;;;11.07;8.87;;;13.60;73.10;;;;;;4996579;28;20459;-88
2021/06/01 01:10:11;;;;;;;10.90;9.60;;;13.60;73.50;;;;;;5014142;28;20469;-88
2021/06/01 01:12:43;;;;;;;12.13;8.90;;;13.50;74.00;;;;;;5008365;28;20438;-87
2021/06/01 01:15:11;;;;;;;11.00;9.90;;;13.50;74.50;;;;;;4992851;28;20999;-87
2021/06/01 01:17:44;;;;;;;11.10;8.70;;;13.50;74.60;;;;;;4993097;28;20529;-87
2021/06/01 01:20:29;;;;;;;11.20;9.50;;;13.40;75.00;;;;;;4993440;28;20448;-87
2021/06/01 01:22:57;;;;;;;14.00;9.43;;;13.40;75.00;;;;;;4994577;28;20468;-87
2021/06/01 01:25:29;;;;;;;10.17;9.27;;;13.50;75.10;;;;;;4996049;28;20435;-88
2021/06/01 01:28:05;;;;;;;14.70;10.20;;;13.40;75.20;;;;;;4994257;28;20469;-87
2021/06/01 01:30:38;;;;;;;13.03;9.43;;;13.30;75.70;;;;;;4998130;28;20449;-87
2021/06/01 01:33:12;;;;;;;11.80;8.87;;;13.30;76.00;;;;;;4996150;28;20447;-88
2021/06/01 01:35:40;;;;;;;10.10;9.10;;;13.30;76.20;;;;;;4995143;28;20548;-87
2021/06/01 01:38:08;;;;;;;9.43;7.73;;;13.30;76.40;;;;;;4999936;28;20465;-87
2021/06/01 01:40:37;;;;;;;11.23;9.77;;;13.10;77.20;;;;;;5015557;28;20440;-87
2021/06/01 01:43:07;;;;;;;15.00;9.90;;;13.10;77.70;;;;;;5013711;28;20432;-87
2021/06/01 01:45:35;;;;;;;11.17;10.13;;;13.10;77.40;;;;;;5011791;28;20439;-87
2021/06/01 01:50:54;;;;;;;11.70;9.20;;;13.10;78.10;;;;;;4994873;28;20495;-87
2021/06/01 01:53:21;;;;;;;10.20;8.60;;;13.00;78.90;;;;;;5016071;28;20428;-87
2021/06/01 01:55:49;;;;;;;9.73;8.80;;;13.00;79.90;;;;;;5006100;28;20500;-87
2021/06/01 01:58:18;;;;;;;11.23;7.30;;;12.90;80.00;;;;;;4998150;28;20463;-87
2021/06/01 02:00:45;;;;;;;10.43;9.33;;;12.90;80.10;;;;;;4996273;28;20452;-87
2021/06/01 02:03:11;;;;;;;11.40;8.60;;;12.80;80.00;;;;;;4995972;28;20945;-87
2021/06/01 02:05:38;;;;;;;12.00;8.17;;;12.90;79.90;;;;;;4996161;28;20801;-87
2021/06/01 02:08:08;;;;;;;11.70;9.40;;;12.90;79.60;;;;;;5014488;28;20468;-87
2021/06/01 02:10:34;;;;;;;11.70;8.60;;;12.80;79.40;;;;;;5004988;28;20460;-87
2021/06/01 02:13:01;;;;;;;11.20;9.27;;;12.80;79.80;;;;;;4995967;28;20781;-87
2021/06/01 02:15:27;;;;;;;13.33;9.67;;;12.80;80.10;;;;;;5006364;28;20511;-86
2021/06/01 02:17:53;;;;;;;9.73;8.67;;;12.70;80.20;;;;;;5004069;28;20455;-87
2021/06/01 02:20:19;;;;;;;12.30;9.60;;;12.70;80.40;;;;;;5014589;28;20439;-87
2021/06/01 02:25:42;;;;;;;11.33;9.47;;;12.60;81.30;;;;;;4965362;28;20428;-87
2021/06/01 02:28:14;;;;;;;10.50;8.93;;;12.60;81.60;;;;;;4994508;28;20455;-87
2021/06/01 02:30:49;;;;;;;13.47;8.97;;;12.40;81.70;;;;;;4990714;28;20444;-89
2021/06/01 02:33:19;;;;;;;12.57;10.03;;;12.30;82.40;;;;;;4994250;28;20441;-89
2021/06/01 02:35:46;;;;;;;10.13;9.10;;;12.30;82.70;;;;;;4995162;28;20501;-90
2021/06/01 02:38:13;;;;;;;9.37;8.33;;;12.40;83.40;;;;;;5014644;28;20452;-89
2021/06/01 02:40:43;;;;;;;13.00;11.27;;;12.30;84.10;;;;;;5003062;28;20638;-89
2021/06/01 02:43:12;;;;;;;13.30;9.30;;;12.30;85.70;;;;;;4995391;28;20448;-90
2021/06/01 02:45:39;;;;;;;11.17;8.60;;;12.30;85.20;;;;;;5008529;28;20419;-90
2021/06/01 02:48:07;;;;;;;12.73;10.47;;;12.30;85.20;;;;;;5019153;28;20447;-89
2021/06/01 02:50:34;;;;;;;10.70;9.63;;;12.30;84.90;;;;;;5010628;28;20455;-89
2021/06/01 02:53:02;;;;;;;14.00;9.13;;;12.10;85.60;;;;;;5000179;28;20510;-89
2021/06/01 02:55:29;;;;;;;10.77;8.83;;;12.00;86.20;;;;;;4994939;28;20477;-89
2021/06/01 02:57:57;;;;;;;11.00;8.30;;;12.00;86.40;;;;;;4993540;28;20466;-89
2021/06/01 03:00:25;;;;;;;15.23;10.53;;;12.00;86.50;;;;;;4995719;28;20493;-89
2021/06/01 03:02:52;;;;;;;11.17;9.60;;;12.00;86.90;;;;;;4994137;28;20505;-89
2021/06/01 03:05:19;;;;;;;11.53;9.20;;;11.90;87.30;;;;;;4992744;28;20447;-90
2021/06/01 03:07:50;;;;;;;12.43;10.60;;;11.90;87.70;;;;;;4995063;28;20463;-89
2021/06/01 03:10:17;;;;;;;11.90;9.53;;;11.90;88.50;;;;;;4994063;28;20439;-89
2021/06/01 03:12:48;;;;;;;13.03;9.97;;;11.90;88.70;;;;;;4995711;28;20531;-89
2021/06/01 03:15:16;;;;;;;12.73;10.10;;;11.90;88.50;;;;;;4995802;28;20483;-89
2021/06/01 03:17:43;;;;;;;15.80;11.27;;;11.90;88.70;;;;;;4999138;28;20448;-89
2021/06/01 03:20:10;;;;;;;13.53;10.00;;;11.90;89.00;;;;;;5012043;28;20427;-89
2021/06/01 03:22:36;;;;;;;15.60;10.43;;;11.80;88.90;;;;;;5007769;28;20454;-90
2021/06/01 03:25:04;;;;;;;10.70;9.60;;;11.80;89.40;;;;;;5000192;28;20455;-89
2021/06/01 03:27:30;;;;;;;12.90;11.20;;;11.90;89.70;;;;;;4995341;28;20470;-89
2021/06/01 03:29:57;;;;;;;14.03;11.23;;;11.80;89.70;;;;;;4995233;28;20456;-89
2021/06/01 03:32:24;;;;;;;15.77;10.70;;;11.80;89.90;;;;;;4994674;28;20455;-89
2021/06/01 03:34:51;;;;;;;10.93;9.43;;;11.80;90.00;;;;;;5003318;28;20445;-89
2021/06/01 03:37:17;;;;;;;15.37;9.80;;;11.80;90.00;;;;;;5018938;28;20518;-89
2021/06/01 03:39:43;;;;;;;17.00;11.27;;;11.80;89.70;;;;;;5019629;28;20424;-89
2021/06/01 03:42:12;;;;;;;13.27;10.57;;;11.70;90.10;;;;;;5019148;28;20450;-89
2021/06/01 03:44:39;;;;;;;11.40;10.20;;;11.60;90.60;;;;;;5019005;28;20424;-90
2021/06/01 03:47:05;;;;;;;12.83;11.00;;;11.60;90.90;;;;;;5019060;28;20443;-88
2021/06/01 03:49:33;;;;;;;13.23;11.50;;;11.60;91.00;;;;;;5019006;28;20429;-90
2021/06/01 03:51:59;;;;;;;11.80;10.67;;;11.60;91.20;;;;;;5017536;28;20433;-89
2021/06/01 03:54:27;;;;;;;13.77;12.50;;;11.50;91.80;;;;;;5018167;28;20424;-89
2021/06/01 03:56:53;;;;;;;12.10;10.53;;;11.50;91.50;;;;;;5010683;28;21043;-89
2021/06/01 03:59:19;;;;;;;11.70;10.50;;;11.60;91.60;;;;;;4994517;28;20483;-89
2021/06/01 04:01:45;;;;;;;14.10;12.40;;;11.50;91.90;;;;;;5008174;28;20466;-89
2021/06/01 04:04:12;;;;;;;13.70;12.27;;;11.60;91.90;;;;;;5010734;28;20455;-90
2021/06/01 04:06:39;;;;;;;14.73;12.43;;;11.60;91.80;;;;;;5015366;28;20517;-89
2021/06/01 04:09:05;;;;;;;16.70;12.10;;;11.60;91.80;;;;;;5012683;28;20454;-88
2021/06/01 04:11:36;;;;;;;17.50;12.00;;;11.60;91.80;;;;;;4999229;28;20442;-90
2021/06/01 04:14:11;;;;;;;15.37;12.13;;;11.60;91.90;;;;;;4996675;28;20419;-90
2021/06/01 04:16:38;;;;;;;12.80;11.10;;;11.50;92.40;;;;;;5008827;28;20510;-90
2021/06/01 04:19:05;;;;;;;12.50;11.23;;;11.60;92.60;;;;;;4992772;28;20453;-89
2021/06/01 04:21:32;;;;;;;12.73;11.37;;;11.60;92.50;;;;;;4992718;28;20493;-89
2021/06/01 04:23:59;;;;;;;15.37;11.37;;;11.60;92.40;;;;;;5015142;28;20422;-89
2021/06/01 04:26:28;;;;;;;13.40;12.03;;;11.70;92.30;;;;;;5015120;28;20431;-89
2021/06/01 04:28:55;;;;;;;16.20;11.73;;;11.70;92.10;;;;;;4992315;28;21010;-88
2021/06/01 04:31:21;;;;;;;17.13;12.77;;;11.70;92.00;;;;;;4999618;28;20447;-89
2021/06/01 04:33:48;;;;;;;16.23;12.43;;;11.70;91.90;;;;;;4994690;28;20462;-89
2021/06/01 04:36:14;;;;;;;16.17;12.17;;;11.70;92.30;;;;;;4995820;28;21030;-90
2021/06/01 04:38:40;;;;;;;13.70;11.27;;;11.80;92.30;;;;;;5232317;23;20499;-89
2021/06/01 04:41:08;;;;;;;19.23;11.30;;;11.90;92.20;;;;;;5011989;28;20430;-89
2021/06/01 04:43:35;;;;;;;13.07;10.93;;;12.00;91.80;;;;;;5017990;28;20507;-87
2021/06/01 04:46:01;;;;;;;13.07;11.67;;;12.00;91.40;;;;;;5004584;28;20427;-90
2021/06/01 04:48:27;;;;;;;16.33;11.03;;;12.00;91.30;;;;;;5010246;28;20461;-88
2021/06/01 04:50:54;;;;;;;18.17;13.90;;;12.00;91.00;;;;;;5009292;28;20442;-89
2021/06/01 04:53:20;;;;;;;13.97;12.43;;;12.00;91.00;;;;;;5003337;28;20450;-89
2021/06/01 04:55:46;;;;;;;16.20;13.20;;;12.00;91.30;;;;;;5013584;28;20475;-88
2021/06/01 04:58:14;;;;;;;14.30;12.37;;;12.10;91.30;;;;;;5022064;28;20431;-89
2021/06/01 05:00:40;;;;;;;14.53;11.20;;;12.10;91.30;;;;;;5021808;28;20435;-89
2021/06/01 05:03:09;;;;;;;15.43;12.47;;;12.20;91.70;;;;;;5020112;28;20442;-89
2021/06/01 05:05:35;;;;;;;16.87;12.30;;;12.20;91.10;;;;;;5010400;28;20436;-89
2021/06/01 05:08:02;;;;;;;24.27;14.03;;;12.20;90.90;;;;;;5011066;28;20989;-89
2021/06/01 05:10:28;;;;;;;17.63;12.57;;;12.20;91.10;;;;;;5000601;28;20826;-89
2021/06/01 05:12:54;;;;;;;16.80;13.53;;;12.60;91.50;;;;;;4999637;28;20466;-89
2021/06/01 05:15:22;;;;;;;20.17;12.30;;;13.40;90.00;;;;;;4999468;28;20461;-89
2021/06/01 05:17:49;;;;;;;17.63;12.77;;;14.30;86.10;;;;;;4999867;28;20619;-89
2021/06/01 05:20:15;;;;;;;16.70;12.90;;;15.20;82.40;;;;;;4999903;28;20438;-89
2021/06/01 05:22:43;;;;;;;15.57;13.73;;;16.10;77.90;;;;;;4998695;28;20876;-90
2021/06/01 05:25:10;;;;;;;17.17;12.67;;;16.80;73.10;;;;;;5000041;28;20540;-89
2021/06/01 05:27:36;;;;;;;16.27;13.20;;;17.30;70.50;;;;;;5003483;28;20529;-90
2021/06/01 05:30:05;;;;;;;14.17;12.03;;;18.00;67.90;;;;;;5011428;28;20440;-90
2021/06/01 05:35:22;;;;;;;17.50;13.63;;;18.40;64.20;;;;;;4996794;28;20443;-90
2021/06/01 05:37:50;;;;;;;23.63;14.97;;;19.00;62.90;;;;;;5001847;28;20555;-90
2021/06/01 05:40:18;;;;;;;19.57;16.13;;;19.50;61.10;;;;;;5003520;28;20584;-90
2021/06/01 05:42:44;;;;;;;17.50;15.60;;;19.90;59.90;;;;;;5020060;28;20481;-89
2021/06/01 05:45:12;;;;;;;16.37;14.73;;;20.40;58.80;;;;;;5011639;28;20527;-89
2021/06/01 05:47:39;;;;;;;16.83;14.83;;;20.90;57.70;;;;;;5003583;28;21221;-88
2021/06/01 05:50:07;;;;;;;14.87;13.33;;;21.10;56.60;;;;;;5013577;28;20453;-89
2021/06/01 05:52:35;;;;;;;18.53;14.57;;;21.50;55.80;;;;;;5002077;28;20463;-89
2021/06/01 05:55:03;;;;;;;15.53;14.07;;;21.80;55.00;;;;;;5006729;28;20445;-88
2021/06/01 05:57:30;;;;;;;14.60;13.30;;;22.50;53.80;;;;;;4998974;28;20585;-89
2021/06/01 05:59:57;;;;;;;15.67;12.00;;;22.90;51.80;;;;;;4997287;28;20454;-90
2021/06/01 06:02:23;;;;;;;13.33;11.93;;;23.10;51.50;;;;;;5004446;28;20435;-89
2021/06/01 06:04:51;;;;;;;16.03;11.10;;;23.30;50.70;;;;;;5019416;28;20434;-88
2021/06/01 06:07:17;;;;;;;13.00;11.60;;;23.50;49.90;;;;;;5018025;28;20463;-89
2021/06/01 06:09:43;;;;;;;14.77;12.23;;;23.60;49.70;;;;;;5000260;28;20442;-90
2021/06/01 06:12:10;;;;;;;11.80;10.23;;;23.60;49.60;;;;;;4998754;28;21002;-89
2021/06/01 06:14:36;;;;;;;12.37;11.17;;;23.90;48.80;;;;;;4995393;28;20452;-89
2021/06/01 06:17:08;;;;;;;12.27;10.97;;;24.30;49.10;;;;;;5005765;23;20478;-88
2021/06/01 06:19:41;;;;;;;8.37;7.70;;;24.80;47.90;;;;;;4996566;28;20447;-89
2021/06/01 06:22:09;;;;;;;8.60;7.80;;;25.10;46.10;;;;;;4978744;28;20514;-88
2021/06/01 06:24:35;;;;;;;8.73;7.67;;;25.50;45.30;;;;;;4975576;28;20941;-89
2021/06/01 06:27:01;;;;;;;7.80;7.00;;;25.80;44.70;;;;;;4975594;28;20990;-89
2021/06/01 06:29:28;;;;;;;8.17;7.40;;;26.20;44.20;;;;;;4987609;28;20487;-89
2021/06/01 06:31:54;;;;;;;7.63;7.07;;;26.40;43.20;;;;;;4977554;28;20456;-89
2021/06/01 06:34:20;;;;;;;8.00;7.17;;;26.40;42.90;;;;;;4984389;28;20452;-89
2021/06/01 06:36:46;;;;;;;6.90;6.30;;;26.70;42.60;;;;;;4992335;28;20495;-89
2021/06/01 06:39:14;;;;;;;6.10;5.53;;;26.80;41.70;;;;;;4986481;28;20449;-88
2021/06/01 06:41:40;;;;;;;6.63;6.03;;;26.80;41.90;;;;;;4994962;28;20479;-89
2021/06/01 06:44:08;;;;;;;6.63;5.90;;;27.10;41.30;;;;;;4993535;28;20478;-89
2021/06/01 06:46:40;;;;;;;7.40;6.70;;;27.60;40.90;;;;;;4981156;28;20693;-89
2021/06/01 06:49:06;;;;;;;6.47;5.83;;;27.70;40.60;;;;;;4977002;28;20521;-88
2021/06/01 06:51:33;;;;;;;7.20;6.50;;;27.80;40.40;;;;;;4976839;28;20450;-89
2021/06/01 06:54:00;;;;;;;8.27;7.17;;;28.30;40.30;;;;;;4975513;28;20669;-88
2021/06/01 06:56:33;;;;;;;8.53;7.70;;;28.50;39.60;;;;;;4976757;28;20480;-88
2021/06/01 06:59:01;;;;;;;7.37;6.67;;;28.80;39.10;;;;;;4976270;28;20661;-89
2021/06/01 07:01:29;;;;;;;9.03;6.33;;;28.90;38.90;;;;;;4976292;28;20456;-88
2021/06/01 07:03:57;;;;;;;5.60;5.10;;;29.30;38.40;;;;;;4975493;28;20812;-89
2021/06/01 07:06:24;;;;;;;6.40;5.90;;;29.50;38.20;;;;;;4979043;28;20491;-90
2021/06/01 07:08:51;;;;;;;5.83;5.33;;;29.80;38.00;;;;;;4989583;28;20471;-89
2021/06/01 07:11:21;;;;;;;7.67;6.00;;;29.60;37.70;;;;;;4978092;28;20452;-89
2021/06/01 07:13:56;;;;;;;5.70;5.00;;;29.70;37.60;;;;;;4989428;28;20458;-89
2021/06/01 07:16:24;;;;;;;7.10;4.70;;;29.50;37.80;;;;;;4987030;28;20490;-90
2021/06/01 07:18:53;;;;;;;6.00;4.00;;;29.90;37.10;;;;;;4980728;28;20491;-89
2021/06/01 07:21:20;;;;;;;6.43;3.73;;;30.80;37.10;;;;;;4977206;28;20464;-90
2021/06/01 07:23:47;;;;;;;3.90;3.60;;;30.90;36.10;;;;;;4974945;28;20447;-89
2021/06/01 07:26:17;;;;;;;3.53;3.23;;;30.90;35.90;;;;;;4974461;28;20487;-89
2021/06/01 07:28:47;;;;;;;3.90;3.50;;;31.10;35.90;;;;;;4975524;28;20467;-90
2021/06/01 07:31:20;;;;;;;5.20;3.53;;;31.40;34.80;;;;;;4986348;28;20455;-89
2021/06/01 07:33:47;;;;;;;5.63;3.47;;;31.30;34.70;;;;;;4977017;28;20458;-89
2021/06/01 07:36:18;;;;;;;4.63;3.87;;;31.60;34.90;;;;;;4975843;28;20484;-88
2021/06/01 07:38:46;;;;;;;4.37;3.97;;;31.80;34.70;;;;;;4978437;28;20459;-87
2021/06/01 07:41:13;;;;;;;5.60;3.77;;;31.40;34.90;;;;;;4975638;28;20487;-92
2021/06/01 07:43:40;;;;;;;6.20;3.33;;;31.60;34.40;;;;;;4974848;28;21013;-88
2021/06/01 07:46:08;;;;;;;3.73;3.43;;;31.90;33.80;;;;;;4976704;28;20514;-88
2021/06/01 07:48:39;;;;;;;3.60;3.30;;;31.70;31.40;;;;;;4979128;28;20878;-89
2021/06/01 07:51:11;;;;;;;3.53;2.70;;;30.20;31.60;;;;;;4975546;28;20846;-89
2021/06/01 07:53:39;;;;;;;3.03;2.73;;;29.70;33.10;;;;;;4974641;28;20459;-89
2021/06/01 07:56:09;;;;;;;3.40;3.10;;;30.50;32.30;;;;;;4975331;28;20483;-89
2021/06/01 07:58:37;;;;;;;5.27;2.90;;;30.20;32.10;;;;;;4975369;28;20460;-89
2021/06/01 08:01:04;;;;;;;3.07;2.77;;;30.60;31.40;;;;;;4974543;28;20469;-88
2021/06/01 08:03:31;;;;;;;3.20;2.90;;;29.90;30.90;;;;;;4972682;28;20559;-89
2021/06/01 08:38:00;;;;;;;3.23;2.93;;;28.00;33.50;;;;;;4720943;30;20529;-88
2021/06/01 09:29:21;;;;;;;4.57;3.00;;;31.60;28.60;;;;;;4692478;30;20807;-89
2021/06/01 09:36:29;;;;;;;3.37;3.03;;;33.30;27.80;;;;;;4838379;29;20458;-89
2021/06/01 09:39:50;;;;;;;11.20;10.33;;;32.60;27.10;;;;;;4875003;28;20514;-89
2021/06/01 09:43:09;;;;;;;4.10;2.70;;;33.00;27.20;;;;;;4997160;28;20458;-89
2021/06/01 09:49:35;;;;;;;2.90;2.70;;;32.30;27.60;;;;;;5006258;28;20455;-89
2021/06/01 09:52:35;;;;;;;3.23;3.00;;;33.00;26.70;;;;;;5000365;28;20458;-88
2021/06/01 09:55:39;;;;;;;3.63;3.33;;;33.40;27.00;;;;;;4984162;28;20539;-88
2021/06/01 10:01:27;;;;;;;2.83;2.63;;;32.50;27.90;;;;;;4985536;28;20459;-89
2021/06/01 10:04:00;;;;;;;3.07;2.77;;;32.70;27.10;;;;;;5002106;28;20880;-90
2021/06/01 10:06:33;;;;;;;5.30;2.97;;;32.50;27.20;;;;;;5007788;28;20463;-90
2021/06/01 10:09:08;;;;;;;2.87;2.67;;;32.00;27.50;;;;;;5005727;28;20843;-90
2021/06/01 10:11:51;;;;;;;4.53;3.87;;;32.60;27.30;;;;;;5014329;28;20470;-90
2021/06/01 10:31:13;;;;;;;3.00;2.80;;;33.50;26.60;;;;;;4843934;29;20602;-90
2021/06/01 10:33:54;;;;;;;4.50;2.60;;;34.00;26.80;;;;;;4947338;28;20470;-89
2021/06/01 10:51:37;;;;;;;3.23;3.03;;;34.90;25.10;;;;;;4973148;28;20450;-88
2021/06/01 10:54:15;;;;;;;3.37;3.07;;;34.10;26.00;;;;;;4986202;28;20447;-89
2021/06/01 10:57:08;;;;;;;3.60;3.07;;;33.80;25.90;;;;;;4997878;28;20566;-90
2021/06/01 11:01:49;;;;;;;3.20;2.90;;;33.60;25.80;;;;;;5000416;28;20551;-89
2021/06/01 11:03:06;;;;;;;5.20;3.00;;;33.90;26.00;;;;;;4999598;28;20446;-90
2021/06/01 11:06:16;;;;;;;2.83;2.63;;;34.50;26.40;;;;;;4996553;28;20493;-89
2021/06/01 11:12:26;;;;;;;3.00;2.80;;;36.10;24.90;;;;;;4990927;28;20458;-89
2021/06/01 11:22:13;;;;;;;4.00;3.10;;;35.80;23.80;;;;;;4937228;29;20466;-90
2021/06/01 11:32:46;;;;;;;6.10;2.83;;;35.00;24.20;;;;;;5004587;28;20462;-89
2021/06/01 11:36:06;;;;;;;3.00;2.80;;;35.50;24.40;;;;;;4908721;29;20490;-87
2021/06/01 11:53:02;;;;;;;2.90;2.60;;;31.80;25.60;;;;;;4982315;28;21102;-90
2021/06/01 12:22:54;;;;;;;2.90;2.60;;;33.60;25.40;;;;;;5007544;28;20466;-91
2021/06/01 12:25:21;;;;;;;3.67;2.90;;;33.80;25.80;;;;;;4995001;28;20518;-87
2021/06/01 12:27:58;;;;;;;3.00;2.80;;;34.30;24.50;;;;;;4993912;28;20451;-86
2021/06/01 12:33:10;;;;;;;3.40;2.83;;;34.80;25.10;;;;;;4994998;28;20466;-87
2021/06/01 12:36:00;;;;;;;4.43;2.97;;;35.30;24.50;;;;;;4994737;28;21030;-87
2021/06/01 12:41:49;;;;;;;5.13;3.40;;;33.90;25.50;;;;;;4999581;28;20581;-86
2021/06/01 12:44:16;;;;;;;3.30;2.97;;;33.90;25.50;;;;;;4995168;28;20447;-87
2021/06/01 12:46:58;;;;;;;4.07;3.77;;;34.70;25.20;;;;;;4994143;28;20999;-86
2021/06/01 13:08:56;;;;;;;3.30;3.07;;;35.50;25.20;;;;;;5008830;28;20461;-87
2021/06/01 13:14:23;;;;;;;4.30;3.00;;;35.50;23.80;;;;;;5005501;28;20486;-87
2021/06/01 13:19:38;;;;;;;3.27;3.00;;;34.30;25.00;;;;;;4993778;28;20446;-86
2021/06/01 13:22:31;;;;;;;3.47;3.17;;;33.90;25.30;;;;;;4998859;28;20826;-86
2021/06/01 13:30:37;;;;;;;2.90;2.70;;;35.30;24.60;;;;;;4995990;28;20449;-87
2021/06/01 13:38:39;;;;;;;2.23;2.10;;;33.60;24.80;;;;;;5000367;28;20966;-87
2021/06/01 13:46:44;;;;;;;3.03;2.83;;;32.90;26.50;;;;;;5001509;28;20545;-86
2021/06/01 13:49:15;;;;;;;2.77;2.57;;;33.40;25.30;;;;;;4997769;28;20830;-87
2021/06/01 13:57:26;;;;;;;3.03;2.83;;;33.10;25.50;;;;;;4996916;28;20490;-87
2021/06/01 14:00:13;;;;;;;3.27;2.97;;;32.40;25.90;;;;;;4997715;28;20980;-86
2021/06/01 14:09:26;;;;;;;3.37;3.10;;;32.20;26.60;;;;;;4997853;28;20455;-86
2021/06/01 14:11:31;;;;;;;3.57;2.90;;;33.10;26.00;;;;;;5017896;28;20486;-86
2021/06/01 14:19:48;;;;;;;2.80;2.57;;;33.00;26.00;;;;;;4996915;28;21026;-86
2021/06/01 14:36:47;;;;;;;3.40;3.20;;;28.60;29.70;;;;;;5014543;28;20498;-85
2021/06/01 14:39:25;;;;;;;3.37;3.07;;;27.90;31.00;;;;;;4999036;28;21024;-85
2021/06/01 15:04:07;;;;;;;5.53;4.27;;;26.10;34.70;;;;;;5005508;28;20444;-87
2021/06/01 15:29:18;;;;;;;5.83;3.10;;;25.50;35.70;;;;;;4934802;28;20531;-87
2021/06/01 15:31:53;;;;;;;3.83;3.50;;;25.50;35.50;;;;;;4994866;28;20455;-87
2021/06/01 15:51:36;;;;;;;3.47;3.17;;;25.10;35.10;;;;;;4989016;28;20449;-88
2021/06/01 15:53:55;;;;;;;3.20;2.90;;;25.10;35.50;;;;;;4993725;28;20990;-87
2021/06/01 16:13:20;;;;;;;5.00;3.03;;;25.20;35.10;;;;;;4993801;28;20449;-87
2021/06/01 16:21:28;;;;;;;4.37;3.80;;;25.20;35.40;;;;;;5014644;28;20477;-87
2021/06/01 16:29:45;;;;;;;3.20;2.90;;;25.00;35.90;;;;;;4993654;28;20533;-87
2021/06/01 16:32:22;;;;;;;4.97;2.73;;;24.80;35.70;;;;;;4980752;28;20483;-87
2021/06/01 16:43:40;;;;;;;2.53;2.30;;;24.70;34.60;;;;;;4987738;28;20550;-87
2021/06/01 17:05:33;;;;;;;3.53;3.23;;;24.30;35.90;;;;;;4998691;28;20473;-88
2021/06/01 17:11:11;;;;;;;6.27;3.57;;;24.30;35.90;;;;;;4938210;29;20812;-88
2021/06/01 17:13:39;;;;;;;3.20;2.90;;;24.30;36.20;;;;;;4936961;29;20452;-88
2021/06/01 17:16:10;;;;;;;4.60;3.60;;;24.30;36.00;;;;;;4969159;28;21005;-89
2021/06/01 17:18:57;;;;;;;3.50;3.03;;;24.10;36.50;;;;;;5012811;28;20480;-88
2021/06/01 17:24:23;;;;;;;4.03;3.63;;;24.00;36.40;;;;;;4981319;28;20492;-86
2021/06/01 17:35:21;;;;;;;5.40;3.77;;;24.00;35.70;;;;;;5007262;28;20496;-87
2021/06/01 17:37:47;;;;;;;2.73;2.53;;;23.90;36.30;;;;;;5019660;28;20513;-87
2021/06/01 17:40:18;;;;;;;3.30;3.00;;;23.80;37.30;;;;;;5020258;28;20500;-87
2021/06/01 17:42:49;;;;;;;4.73;2.97;;;23.70;36.80;;;;;;5019330;28;20430;-88
2021/06/01 17:45:20;;;;;;;8.23;4.00;;;23.70;36.90;;;;;;5018891;28;20515;-88
2021/06/01 17:47:51;;;;;;;3.40;3.10;;;23.60;37.30;;;;;;5015784;28;20437;-87
2021/06/01 17:50:22;;;;;;;3.50;2.63;;;23.60;37.30;;;;;;5020367;28;20448;-87
2021/06/01 17:52:50;;;;;;;3.90;2.80;;;23.60;37.60;;;;;;5019676;28;20429;-88
2021/06/01 17:55:17;;;;;;;3.43;2.73;;;23.50;37.80;;;;;;5019256;28;20438;-87
2021/06/01 17:57:44;;;;;;;3.50;2.90;;;23.60;38.30;;;;;;5018945;28;20479;-86
2021/06/01 18:00:13;;;;;;;4.00;3.50;;;23.60;37.60;;;;;;5012365;28;20480;-88
2021/06/01 18:02:39;;;;;;;6.57;3.03;;;23.60;38.00;;;;;;5013402;28;20468;-88
2021/06/01 18:05:08;;;;;;;3.47;3.17;;;23.60;38.40;;;;;;5017453;28;20448;-89
2021/06/01 18:07:40;;;;;;;3.60;3.30;;;23.50;38.70;;;;;;5003409;28;20443;-88
2021/06/01 18:10:55;;;;;;;3.80;3.37;;;23.40;38.70;;;;;;4997966;28;20544;-88
2021/06/01 18:13:51;;;;;;;3.53;3.30;;;23.40;38.60;;;;;;5002261;28;20540;-87
2021/06/01 18:41:49;;;;;;;3.90;3.53;;;22.70;40.50;;;;;;5015130;28;20507;-89
2021/06/01 19:29:20;;;;;;;5.60;3.40;;;21.70;42.90;;;;;;4997333;28;20434;-88
2021/06/01 19:51:20;;;;;;;4.50;4.13;;;21.10;44.20;;;;;;5013254;28;20455;-87
2021/06/01 19:53:48;;;;;;;4.87;3.47;;;21.00;44.80;;;;;;4998783;28;20990;-87
2021/06/01 19:56:15;;;;;;;7.83;6.03;;;21.00;45.10;;;;;;4997801;28;20469;-88
2021/06/01 19:58:42;;;;;;;4.20;3.90;;;20.90;45.50;;;;;;4995167;28;20490;-88
2021/06/01 20:01:10;;;;;;;4.90;4.50;;;20.70;45.70;;;;;;4995267;28;20454;-88
2021/06/01 20:03:39;;;;;;;4.27;3.87;;;20.70;46.20;;;;;;4995794;28;20447;-88
2021/06/01 20:06:09;;;;;;;4.00;3.70;;;20.50;46.20;;;;;;4996143;28;20470;-87
2021/06/01 20:08:36;;;;;;;3.83;3.53;;;20.50;46.30;;;;;;5003105;23;20573;-89
2021/06/01 20:11:03;;;;;;;4.33;3.90;;;20.50;46.40;;;;;;5004763;28;20440;-92
2021/06/01 20:13:29;;;;;;;4.60;4.10;;;20.50;46.90;;;;;;5004802;28;20523;-88
2021/06/01 20:15:56;;;;;;;5.80;3.67;;;20.50;47.00;;;;;;4996541;28;20457;-87
2021/06/01 20:18:27;;;;;;;4.47;4.07;;;20.50;47.10;;;;;;4996062;28;20501;-88
2021/06/01 20:24:55;;;;;;;4.80;3.80;;;20.40;47.60;;;;;;4970255;28;20438;-89
2021/06/01 20:34:58;;;;;;;;;;;;;;;;;;;;;
2021/06/01 20:37:55;;;;;;;6.50;3.90;;;20.00;48.30;;;;;;4865389;29;20489;-89
2021/06/01 20:48:27;;;;;;;4.50;3.97;;;19.70;48.60;;;;;;4900830;29;20450;-89
2021/06/01 20:51:39;;;;;;;3.83;3.37;;;19.70;49.10;;;;;;4846115;29;20548;-89
2021/06/01 20:54:29;;;;;;;5.10;3.97;;;19.70;49.00;;;;;;4900123;29;20440;-89
2021/06/01 20:57:28;;;;;;;4.80;4.30;;;19.60;49.40;;;;;;4925482;28;20459;-89
2021/06/01 21:03:45;;;;;;;8.73;5.80;;;19.60;50.00;;;;;;4861911;29;20829;-89
2021/06/01 21:13:39;;;;;;;5.53;4.93;;;19.30;51.30;;;;;;4844092;29;20465;-88
2021/06/01 21:20:24;;;;;;;7.00;4.83;;;19.20;51.80;;;;;;5125026;23;20496;-89
2021/06/01 21:34:52;;;;;;;10.13;6.50;;;19.00;52.70;;;;;;4773517;30;20465;-89
2021/06/01 21:40:52;;;;;;;8.17;7.10;;;18.90;53.30;;;;;;4803751;29;20435;-89
2021/06/01 21:43:26;;;;;;;6.93;6.23;;;18.90;53.50;;;;;;4826068;29;20966;-88
2021/06/01 21:49:32;;;;;;;8.50;7.20;;;18.90;53.80;;;;;;4805475;29;20467;-88
2021/06/01 21:55:18;;;;;;;7.33;6.63;;;18.80;53.90;;;;;;4862144;29;20492;-89
2021/06/01 22:01:16;;;;;;;6.10;5.50;;;18.70;54.00;;;;;;4978371;28;20451;-89
2021/06/01 22:04:00;;;;;;;5.77;5.20;;;18.60;53.60;;;;;;4978773;28;20434;-89
2021/06/01 22:06:35;;;;;;;6.37;4.80;;;18.40;54.00;;;;;;4970557;28;20531;-88
2021/06/01 22:09:31;;;;;;;7.10;5.47;;;18.30;54.20;;;;;;4980258;28;20986;-89
2021/06/01 22:12:40;;;;;;;7.30;6.60;;;18.30;54.30;;;;;;4975011;28;20432;-88
2021/06/01 22:18:57;;;;;;;7.90;6.67;;;18.10;55.60;;;;;;4975888;28;20834;-87
2021/06/01 22:21:38;;;;;;;7.63;6.50;;;18.00;56.10;;;;;;4975583;28;21172;-88